Dodge City Regional Airport Dodge City US
ICAO: KDDC
IATA: DDC
Category: Medium
Scheduled Services: Yes

Elevation: 2594 ft
TransAlt. 18000 ft.

Airport Communications:
ASOS:118.525
KANSAS CITY CNTR:125.2
WICHITA RDO:122.35
CTAF/UNICOM:122.7

KDDC Zoom In..

Runways:

(A) RW 02 length 4649 ft width 100 ft
---- / hdg 24

(B) RW 14 length 6899 ft width 100 ft
ILS 111.70 / hdg 146

(C) RW 20 length 4649 ft width 100 ft
---- / hdg 204

(D) RW 32 length 6899 ft width 100 ft
---- / hdg 326

Location; KDDC
Day. 19 / Time. 20.52 Zulu
* Altimeter: 29.87
* Temperature: 38° c. 100.4°f.
* Wind from: 160° Speed 07 kn.
Dewpoint: 18° c.
Visibility: 10 Statute Miles.
Clouds: Clear (automated report).

KDDC 192052Z AUTO 16007KT 120V180 10SM CLR 38/18 A2987 RMK AO2 SLP074 T03830178 56020


Wind From 160°
Speed 07 kn.

 
 
jpsmedia.com for Web Design worldairports.se 2018   terms of use